sensor_id;sensor_type;location;lat;lon;timestamp;P1;durP1;ratioP1;P2;durP2;ratioP2
8694;SDS011;65580;49.446;6.854;2023-06-22T00:02:18;20.17;;;11.13;;
8694;SDS011;65580;49.446;6.854;2023-06-22T00:06:21;14.25;;;7.15;;
8694;SDS011;65580;49.446;6.854;2023-06-22T00:10:24;16.70;;;6.88;;
8694;SDS011;65580;49.446;6.854;2023-06-22T00:14:27;21.88;;;9.93;;
8694;SDS011;65580;49.446;6.854;2023-06-22T00:22:34;17.80;;;9.70;;
8694;SDS011;65580;49.446;6.854;2023-06-22T00:26:40;23.58;;;13.15;;
8694;SDS011;65580;49.446;6.854;2023-06-22T00:34:47;11.45;;;7.72;;
8694;SDS011;65580;49.446;6.854;2023-06-22T00:38:52;16.48;;;7.47;;
8694;SDS011;65580;49.446;6.854;2023-06-22T00:42:54;11.23;;;6.70;;
8694;SDS011;65580;49.446;6.854;2023-06-22T00:51:03;12.02;;;7.72;;
8694;SDS011;65580;49.446;6.854;2023-06-22T00:55:06;12.50;;;7.95;;
8694;SDS011;65580;49.446;6.854;2023-06-22T00:59:09;13.30;;;7.40;;
8694;SDS011;65580;49.446;6.854;2023-06-22T01:03:14;13.75;;;9.15;;
8694;SDS011;65580;49.446;6.854;2023-06-22T01:07:21;12.02;;;8.05;;
8694;SDS011;65580;49.446;6.854;2023-06-22T01:11:31;14.13;;;7.60;;
8694;SDS011;65580;49.446;6.854;2023-06-22T01:15:39;10.90;;;7.85;;
8694;SDS011;65580;49.446;6.854;2023-06-22T01:19:48;14.45;;;8.18;;
8694;SDS011;65580;49.446;6.854;2023-06-22T01:24:01;12.75;;;8.63;;
8694;SDS011;65580;49.446;6.854;2023-06-22T01:28:11;10.43;;;7.32;;
8694;SDS011;65580;49.446;6.854;2023-06-22T01:32:27;22.75;;;13.27;;
8694;SDS011;65580;49.446;6.854;2023-06-22T01:36:31;13.73;;;9.77;;
8694;SDS011;65580;49.446;6.854;2023-06-22T01:40:34;13.32;;;8.30;;
8694;SDS011;65580;49.446;6.854;2023-06-22T01:44:38;13.75;;;7.85;;
8694;SDS011;65580;49.446;6.854;2023-06-22T01:52:45;11.73;;;7.20;;
8694;SDS011;65580;49.446;6.854;2023-06-22T01:56:49;12.38;;;8.10;;
8694;SDS011;65580;49.446;6.854;2023-06-22T02:00:53;31.33;;;15.45;;
8694;SDS011;65580;49.446;6.854;2023-06-22T02:05:02;14.70;;;7.15;;
8694;SDS011;65580;49.446;6.854;2023-06-22T02:09:08;11.52;;;7.85;;
8694;SDS011;65580;49.446;6.854;2023-06-22T02:13:12;15.07;;;8.73;;
8694;SDS011;65580;49.446;6.854;2023-06-22T02:17:16;19.00;;;10.75;;
8694;SDS011;65580;49.446;6.854;2023-06-22T02:21:20;11.68;;;9.02;;
8694;SDS011;65580;49.446;6.854;2023-06-22T02:25:24;21.83;;;11.35;;
8694;SDS011;65580;49.446;6.854;2023-06-22T02:29:27;24.98;;;13.00;;
8694;SDS011;65580;49.446;6.854;2023-06-22T02:37:34;12.82;;;9.40;;
8694;SDS011;65580;49.446;6.854;2023-06-22T02:41:40;14.68;;;9.30;;
8694;SDS011;65580;49.446;6.854;2023-06-22T02:45:42;21.08;;;11.13;;
8694;SDS011;65580;49.446;6.854;2023-06-22T02:49:45;14.27;;;9.85;;
8694;SDS011;65580;49.446;6.854;2023-06-22T02:53:49;77.05;;;26.40;;
8694;SDS011;65580;49.446;6.854;2023-06-22T02:57:58;90.07;;;29.10;;
8694;SDS011;65580;49.446;6.854;2023-06-22T03:02:05;68.85;;;26.35;;
8694;SDS011;65580;49.446;6.854;2023-06-22T03:06:08;15.50;;;10.32;;
8694;SDS011;65580;49.446;6.854;2023-06-22T03:10:16;16.08;;;9.98;;
8694;SDS011;65580;49.446;6.854;2023-06-22T03:14:19;13.40;;;7.88;;
8694;SDS011;65580;49.446;6.854;2023-06-22T03:18:22;11.80;;;8.70;;
8694;SDS011;65580;49.446;6.854;2023-06-22T03:22:25;10.90;;;8.38;;
8694;SDS011;65580;49.446;6.854;2023-06-22T03:26:29;14.68;;;10.13;;
8694;SDS011;65580;49.446;6.854;2023-06-22T03:30:32;14.68;;;10.13;;
8694;SDS011;65580;49.446;6.854;2023-06-22T03:34:34;12.38;;;7.55;;
8694;SDS011;65580;49.446;6.854;2023-06-22T03:38:38;91.10;;;11.93;;
8694;SDS011;65580;49.446;6.854;2023-06-22T03:42:45;19.63;;;11.02;;
8694;SDS011;65580;49.446;6.854;2023-06-22T03:46:48;11.55;;;7.18;;
8694;SDS011;65580;49.446;6.854;2023-06-22T03:50:51;16.33;;;9.18;;
8694;SDS011;65580;49.446;6.854;2023-06-22T03:54:54;10.43;;;6.93;;
8694;SDS011;65580;49.446;6.854;2023-06-22T03:58:58;15.25;;;8.70;;
8694;SDS011;65580;49.446;6.854;2023-06-22T04:03:01;59.03;;;9.95;;
8694;SDS011;65580;49.446;6.854;2023-06-22T04:07:04;11.90;;;8.43;;
8694;SDS011;65580;49.446;6.854;2023-06-22T04:11:06;12.68;;;8.23;;
8694;SDS011;65580;49.446;6.854;2023-06-22T04:15:11;18.85;;;11.27;;
8694;SDS011;65580;49.446;6.854;2023-06-22T04:19:13;13.23;;;9.15;;
8694;SDS011;65580;49.446;6.854;2023-06-22T04:23:18;15.20;;;8.50;;
8694;SDS011;65580;49.446;6.854;2023-06-22T04:27:20;14.50;;;8.75;;
8694;SDS011;65580;49.446;6.854;2023-06-22T04:31:25;13.65;;;9.23;;
8694;SDS011;65580;49.446;6.854;2023-06-22T04:35:33;63.90;;;21.98;;
8694;SDS011;65580;49.446;6.854;2023-06-22T04:39:36;72.75;;;26.48;;
8694;SDS011;65580;49.446;6.854;2023-06-22T04:43:38;49.95;;;23.27;;
8694;SDS011;65580;49.446;6.854;2023-06-22T04:47:42;155.60;;;36.45;;
8694;SDS011;65580;49.446;6.854;2023-06-22T04:51:46;22.20;;;14.23;;
8694;SDS011;65580;49.446;6.854;2023-06-22T04:55:49;26.60;;;16.20;;
8694;SDS011;65580;49.446;6.854;2023-06-22T04:59:54;19.15;;;13.10;;
8694;SDS011;65580;49.446;6.854;2023-06-22T05:03:58;79.22;;;25.60;;
8694;SDS011;65580;49.446;6.854;2023-06-22T05:08:03;21.13;;;11.10;;
8694;SDS011;65580;49.446;6.854;2023-06-22T05:12:08;24.52;;;13.13;;
8694;SDS011;65580;49.446;6.854;2023-06-22T05:16:11;39.92;;;18.33;;
8694;SDS011;65580;49.446;6.854;2023-06-22T05:20:16;24.90;;;13.02;;
8694;SDS011;65580;49.446;6.854;2023-06-22T05:24:19;29.92;;;14.07;;
8694;SDS011;65580;49.446;6.854;2023-06-22T05:28:22;27.20;;;15.63;;
8694;SDS011;65580;49.446;6.854;2023-06-22T05:32:25;20.70;;;12.55;;
8694;SDS011;65580;49.446;6.854;2023-06-22T05:36:29;21.70;;;12.35;;
8694;SDS011;65580;49.446;6.854;2023-06-22T05:40:31;18.25;;;9.18;;
8694;SDS011;65580;49.446;6.854;2023-06-22T05:48:38;13.85;;;7.90;;
8694;SDS011;65580;49.446;6.854;2023-06-22T05:56:45;9.00;;;5.60;;
8694;SDS011;65580;49.446;6.854;2023-06-22T06:00:48;10.07;;;6.10;;
8694;SDS011;65580;49.446;6.854;2023-06-22T06:04:51;9.77;;;5.60;;
8694;SDS011;65580;49.446;6.854;2023-06-22T06:08:57;11.00;;;5.55;;
8694;SDS011;65580;49.446;6.854;2023-06-22T06:13:00;8.57;;;5.03;;
8694;SDS011;65580;49.446;6.854;2023-06-22T06:17:05;8.55;;;4.80;;
8694;SDS011;65580;49.446;6.854;2023-06-22T06:21:08;13.18;;;4.85;;
8694;SDS011;65580;49.446;6.854;2023-06-22T06:25:13;8.80;;;5.88;;
8694;SDS011;65580;49.446;6.854;2023-06-22T06:29:18;7.70;;;5.43;;
8694;SDS011;65580;49.446;6.854;2023-06-22T06:33:20;9.88;;;5.45;;
8694;SDS011;65580;49.446;6.854;2023-06-22T06:37:26;10.38;;;4.40;;
8694;SDS011;65580;49.446;6.854;2023-06-22T06:41:30;8.98;;;4.75;;
8694;SDS011;65580;49.446;6.854;2023-06-22T06:45:33;10.63;;;5.10;;
8694;SDS011;65580;49.446;6.854;2023-06-22T06:49:36;9.65;;;5.13;;
8694;SDS011;65580;49.446;6.854;2023-06-22T06:53:39;12.48;;;4.45;;
8694;SDS011;65580;49.446;6.854;2023-06-22T06:57:43;7.38;;;4.72;;
8694;SDS011;65580;49.446;6.854;2023-06-22T07:01:49;9.23;;;4.85;;
8694;SDS011;65580;49.446;6.854;2023-06-22T07:05:53;6.38;;;4.32;;
8694;SDS011;65580;49.446;6.854;2023-06-22T07:09:55;8.45;;;4.43;;
8694;SDS011;65580;49.446;6.854;2023-06-22T07:14:00;8.02;;;3.63;;
8694;SDS011;65580;49.446;6.854;2023-06-22T07:18:03;8.48;;;4.55;;
8694;SDS011;65580;49.446;6.854;2023-06-22T07:22:06;8.63;;;4.15;;
8694;SDS011;65580;49.446;6.854;2023-06-22T07:26:08;6.05;;;4.20;;
8694;SDS011;65580;49.446;6.854;2023-06-22T07:30:15;7.35;;;4.55;;
8694;SDS011;65580;49.446;6.854;2023-06-22T07:34:19;5.90;;;3.80;;
8694;SDS011;65580;49.446;6.854;2023-06-22T07:38:22;7.35;;;4.05;;
8694;SDS011;65580;49.446;6.854;2023-06-22T07:42:25;6.30;;;4.03;;
8694;SDS011;65580;49.446;6.854;2023-06-22T07:46:30;9.30;;;4.32;;
8694;SDS011;65580;49.446;6.854;2023-06-22T07:50:33;7.00;;;4.45;;
8694;SDS011;65580;49.446;6.854;2023-06-22T07:54:37;9.15;;;4.05;;
8694;SDS011;65580;49.446;6.854;2023-06-22T07:58:39;9.02;;;4.70;;
8694;SDS011;65580;49.446;6.854;2023-06-22T08:02:45;6.32;;;4.45;;
8694;SDS011;65580;49.446;6.854;2023-06-22T08:06:49;8.82;;;4.13;;
8694;SDS011;65580;49.446;6.854;2023-06-22T08:10:52;5.93;;;4.13;;
8694;SDS011;65580;49.446;6.854;2023-06-22T08:14:55;8.23;;;4.40;;
8694;SDS011;65580;49.446;6.854;2023-06-22T08:19:00;8.57;;;4.03;;
8694;SDS011;65580;49.446;6.854;2023-06-22T08:23:03;7.75;;;4.13;;
8694;SDS011;65580;49.446;6.854;2023-06-22T08:27:07;9.02;;;4.60;;
8694;SDS011;65580;49.446;6.854;2023-06-22T08:31:11;7.40;;;4.55;;
8694;SDS011;65580;49.446;6.854;2023-06-22T08:35:16;10.95;;;4.57;;
8694;SDS011;65580;49.446;6.854;2023-06-22T08:39:20;6.72;;;4.50;;
8694;SDS011;65580;49.446;6.854;2023-06-22T08:43:23;8.95;;;4.57;;
8694;SDS011;65580;49.446;6.854;2023-06-22T08:47:26;8.82;;;4.90;;
8694;SDS011;65580;49.446;6.854;2023-06-22T08:51:31;7.18;;;4.55;;
8694;SDS011;65580;49.446;6.854;2023-06-22T08:55:34;8.23;;;4.22;;
8694;SDS011;65580;49.446;6.854;2023-06-22T08:59:37;10.13;;;4.50;;
8694;SDS011;65580;49.446;6.854;2023-06-22T09:03:42;8.35;;;4.93;;
8694;SDS011;65580;49.446;6.854;2023-06-22T09:07:57;10.75;;;4.53;;
8694;SDS011;65580;49.446;6.854;2023-06-22T09:12:01;9.00;;;4.60;;
8694;SDS011;65580;49.446;6.854;2023-06-22T09:16:03;7.75;;;4.32;;
8694;SDS011;65580;49.446;6.854;2023-06-22T09:20:07;13.38;;;4.70;;
8694;SDS011;65580;49.446;6.854;2023-06-22T09:24:13;8.20;;;4.80;;
8694;SDS011;65580;49.446;6.854;2023-06-22T09:28:16;8.52;;;4.68;;
8694;SDS011;65580;49.446;6.854;2023-06-22T09:32:19;9.48;;;4.93;;
8694;SDS011;65580;49.446;6.854;2023-06-22T09:36:22;8.95;;;4.75;;
8694;SDS011;65580;49.446;6.854;2023-06-22T09:40:27;11.90;;;5.15;;
8694;SDS011;65580;49.446;6.854;2023-06-22T09:44:31;9.18;;;4.43;;
8694;SDS011;65580;49.446;6.854;2023-06-22T09:48:34;7.45;;;4.25;;
8694;SDS011;65580;49.446;6.854;2023-06-22T09:52:41;8.25;;;4.57;;
8694;SDS011;65580;49.446;6.854;2023-06-22T09:56:50;8.15;;;4.70;;
8694;SDS011;65580;49.446;6.854;2023-06-22T10:00:53;8.48;;;4.32;;
8694;SDS011;65580;49.446;6.854;2023-06-22T10:04:56;9.27;;;4.05;;
8694;SDS011;65580;49.446;6.854;2023-06-22T10:08:59;9.52;;;4.85;;
8694;SDS011;65580;49.446;6.854;2023-06-22T10:13:07;10.48;;;4.75;;
8694;SDS011;65580;49.446;6.854;2023-06-22T10:17:17;9.07;;;4.60;;
8694;SDS011;65580;49.446;6.854;2023-06-22T10:21:20;7.53;;;4.22;;
8694;SDS011;65580;49.446;6.854;2023-06-22T10:25:23;7.60;;;4.60;;
8694;SDS011;65580;49.446;6.854;2023-06-22T10:29:27;10.95;;;5.30;;
8694;SDS011;65580;49.446;6.854;2023-06-22T10:33:30;9.02;;;4.32;;
8694;SDS011;65580;49.446;6.854;2023-06-22T10:37:35;7.97;;;4.15;;
8694;SDS011;65580;49.446;6.854;2023-06-22T10:41:38;10.82;;;4.15;;
8694;SDS011;65580;49.446;6.854;2023-06-22T10:45:42;8.18;;;4.20;;
8694;SDS011;65580;49.446;6.854;2023-06-22T10:49:46;9.20;;;4.28;;
8694;SDS011;65580;49.446;6.854;2023-06-22T10:53:49;14.30;;;4.60;;
8694;SDS011;65580;49.446;6.854;2023-06-22T10:57:52;8.43;;;4.32;;
8694;SDS011;65580;49.446;6.854;2023-06-22T11:01:56;8.35;;;4.60;;
8694;SDS011;65580;49.446;6.854;2023-06-22T11:05:59;7.45;;;3.97;;
8694;SDS011;65580;49.446;6.854;2023-06-22T11:10:02;7.78;;;4.38;;
8694;SDS011;65580;49.446;6.854;2023-06-22T11:14:05;10.68;;;4.13;;
8694;SDS011;65580;49.446;6.854;2023-06-22T11:18:10;8.43;;;4.30;;
8694;SDS011;65580;49.446;6.854;2023-06-22T11:22:13;7.90;;;4.47;;
8694;SDS011;65580;49.446;6.854;2023-06-22T11:26:15;7.93;;;3.80;;
8694;SDS011;65580;49.446;6.854;2023-06-22T11:30:20;12.90;;;4.53;;
8694;SDS011;65580;49.446;6.854;2023-06-22T11:34:25;7.05;;;4.07;;
8694;SDS011;65580;49.446;6.854;2023-06-22T11:38:29;8.95;;;3.50;;
8694;SDS011;65580;49.446;6.854;2023-06-22T11:42:32;5.85;;;3.55;;
8694;SDS011;65580;49.446;6.854;2023-06-22T11:46:35;6.95;;;3.80;;
8694;SDS011;65580;49.446;6.854;2023-06-22T11:50:40;10.18;;;4.07;;
8694;SDS011;65580;49.446;6.854;2023-06-22T11:54:43;10.35;;;4.15;;
8694;SDS011;65580;49.446;6.854;2023-06-22T11:58:47;9.70;;;3.67;;
8694;SDS011;65580;49.446;6.854;2023-06-22T12:02:50;8.73;;;3.97;;
8694;SDS011;65580;49.446;6.854;2023-06-22T12:06:56;10.00;;;3.85;;
8694;SDS011;65580;49.446;6.854;2023-06-22T12:10:59;7.97;;;3.53;;
8694;SDS011;65580;49.446;6.854;2023-06-22T12:15:02;10.77;;;3.88;;
8694;SDS011;65580;49.446;6.854;2023-06-22T12:19:07;12.98;;;3.70;;
8694;SDS011;65580;49.446;6.854;2023-06-22T12:23:12;15.02;;;4.15;;
8694;SDS011;65580;49.446;6.854;2023-06-22T12:27:15;13.43;;;3.85;;
8694;SDS011;65580;49.446;6.854;2023-06-22T12:31:19;13.32;;;3.72;;
8694;SDS011;65580;49.446;6.854;2023-06-22T12:35:22;11.48;;;3.60;;
8694;SDS011;65580;49.446;6.854;2023-06-22T12:39:26;13.88;;;3.78;;
8694;SDS011;65580;49.446;6.854;2023-06-22T12:43:29;13.57;;;3.63;;
8694;SDS011;65580;49.446;6.854;2023-06-22T12:47:32;12.95;;;3.70;;
8694;SDS011;65580;49.446;6.854;2023-06-22T12:51:39;15.13;;;3.70;;
8694;SDS011;65580;49.446;6.854;2023-06-22T12:55:43;13.63;;;3.65;;
8694;SDS011;65580;49.446;6.854;2023-06-22T12:59:46;13.00;;;3.35;;
8694;SDS011;65580;49.446;6.854;2023-06-22T13:03:49;17.98;;;3.50;;
8694;SDS011;65580;49.446;6.854;2023-06-22T13:07:52;14.00;;;3.90;;
8694;SDS011;65580;49.446;6.854;2023-06-22T13:11:57;16.77;;;3.67;;
8694;SDS011;65580;49.446;6.854;2023-06-22T13:16:00;13.70;;;3.60;;
8694;SDS011;65580;49.446;6.854;2023-06-22T13:20:03;12.18;;;3.13;;
8694;SDS011;65580;49.446;6.854;2023-06-22T13:24:07;14.40;;;3.35;;
8694;SDS011;65580;49.446;6.854;2023-06-22T13:28:11;17.63;;;3.10;;
8694;SDS011;65580;49.446;6.854;2023-06-22T13:32:28;10.10;;;2.22;;
8694;SDS011;65580;49.446;6.854;2023-06-22T13:36:31;8.18;;;1.98;;
8694;SDS011;65580;49.446;6.854;2023-06-22T13:40:34;9.02;;;2.00;;
8694;SDS011;65580;49.446;6.854;2023-06-22T13:44:39;13.90;;;2.40;;
8694;SDS011;65580;49.446;6.854;2023-06-22T13:48:42;16.13;;;2.33;;
8694;SDS011;65580;49.446;6.854;2023-06-22T13:52:45;8.95;;;2.28;;
8694;SDS011;65580;49.446;6.854;2023-06-22T13:56:48;8.18;;;2.55;;
8694;SDS011;65580;49.446;6.854;2023-06-22T14:00:53;10.80;;;2.67;;
8694;SDS011;65580;49.446;6.854;2023-06-22T14:04:57;14.98;;;2.50;;
8694;SDS011;65580;49.446;6.854;2023-06-22T14:09:00;15.88;;;2.67;;
8694;SDS011;65580;49.446;6.854;2023-06-22T14:13:03;11.65;;;2.38;;
8694;SDS011;65580;49.446;6.854;2023-06-22T14:17:08;13.30;;;2.53;;
8694;SDS011;65580;49.446;6.854;2023-06-22T14:21:11;13.95;;;2.58;;
8694;SDS011;65580;49.446;6.854;2023-06-22T14:25:13;11.35;;;2.58;;
8694;SDS011;65580;49.446;6.854;2023-06-22T14:29:16;11.40;;;2.70;;
8694;SDS011;65580;49.446;6.854;2023-06-22T14:33:20;12.32;;;2.50;;
8694;SDS011;65580;49.446;6.854;2023-06-22T14:37:23;8.60;;;2.35;;
8694;SDS011;65580;49.446;6.854;2023-06-22T14:41:26;8.02;;;2.25;;
8694;SDS011;65580;49.446;6.854;2023-06-22T14:45:29;11.07;;;2.53;;
8694;SDS011;65580;49.446;6.854;2023-06-22T14:49:33;18.20;;;2.60;;
8694;SDS011;65580;49.446;6.854;2023-06-22T14:53:37;10.30;;;2.28;;
8694;SDS011;65580;49.446;6.854;2023-06-22T14:57:39;9.63;;;2.20;;
8694;SDS011;65580;49.446;6.854;2023-06-22T15:01:42;8.68;;;2.40;;
8694;SDS011;65580;49.446;6.854;2023-06-22T15:05:49;4.32;;;2.03;;
8694;SDS011;65580;49.446;6.854;2023-06-22T15:09:53;9.40;;;2.20;;
8694;SDS011;65580;49.446;6.854;2023-06-22T15:13:57;9.35;;;2.05;;
8694;SDS011;65580;49.446;6.854;2023-06-22T15:18:01;13.52;;;2.50;;
8694;SDS011;65580;49.446;6.854;2023-06-22T15:22:06;10.00;;;2.47;;
8694;SDS011;65580;49.446;6.854;2023-06-22T15:26:09;4.57;;;2.08;;
8694;SDS011;65580;49.446;6.854;2023-06-22T15:30:12;6.68;;;1.90;;
8694;SDS011;65580;49.446;6.854;2023-06-22T15:34:15;6.38;;;2.03;;
8694;SDS011;65580;49.446;6.854;2023-06-22T15:38:20;6.25;;;1.70;;
8694;SDS011;65580;49.446;6.854;2023-06-22T15:42:23;4.13;;;1.58;;
8694;SDS011;65580;49.446;6.854;2023-06-22T15:46:26;2.28;;;1.40;;
8694;SDS011;65580;49.446;6.854;2023-06-22T15:50:29;6.72;;;1.83;;
8694;SDS011;65580;49.446;6.854;2023-06-22T15:54:33;4.75;;;1.83;;
8694;SDS011;65580;49.446;6.854;2023-06-22T15:58:36;4.97;;;1.83;;
8694;SDS011;65580;49.446;6.854;2023-06-22T16:02:40;2.97;;;1.70;;
8694;SDS011;65580;49.446;6.854;2023-06-22T16:06:43;4.50;;;1.30;;
8694;SDS011;65580;49.446;6.854;2023-06-22T16:10:47;4.90;;;1.08;;
8694;SDS011;65580;49.446;6.854;2023-06-22T16:14:50;1.77;;;0.90;;
8694;SDS011;65580;49.446;6.854;2023-06-22T16:18:53;2.80;;;0.93;;
8694;SDS011;65580;49.446;6.854;2023-06-22T16:22:56;3.67;;;0.77;;
8694;SDS011;65580;49.446;6.854;2023-06-22T16:27:00;3.45;;;1.00;;
8694;SDS011;65580;49.446;6.854;2023-06-22T16:31:03;3.88;;;0.80;;
8694;SDS011;65580;49.446;6.854;2023-06-22T16:35:06;1.88;;;0.80;;
8694;SDS011;65580;49.446;6.854;2023-06-22T16:39:10;2.70;;;0.90;;
8694;SDS011;65580;49.446;6.854;2023-06-22T16:43:15;1.63;;;0.68;;
8694;SDS011;65580;49.446;6.854;2023-06-22T16:47:18;1.67;;;0.50;;
8694;SDS011;65580;49.446;6.854;2023-06-22T16:51:21;2.75;;;0.90;;
8694;SDS011;65580;49.446;6.854;2023-06-22T16:55:24;3.58;;;0.80;;
8694;SDS011;65580;49.446;6.854;2023-06-22T16:59:31;1.95;;;0.80;;
8694;SDS011;65580;49.446;6.854;2023-06-22T17:03:33;1.75;;;0.60;;
8694;SDS011;65580;49.446;6.854;2023-06-22T17:07:48;0.60;;;0.60;;
8694;SDS011;65580;49.446;6.854;2023-06-22T17:11:54;2.47;;;1.02;;
8694;SDS011;65580;49.446;6.854;2023-06-22T17:15:58;1.23;;;0.88;;
8694;SDS011;65580;49.446;6.854;2023-06-22T17:20:02;4.75;;;0.85;;
8694;SDS011;65580;49.446;6.854;2023-06-22T17:24:06;1.77;;;0.77;;
8694;SDS011;65580;49.446;6.854;2023-06-22T17:28:08;2.17;;;0.90;;
8694;SDS011;65580;49.446;6.854;2023-06-22T17:32:13;0.95;;;0.90;;
8694;SDS011;65580;49.446;6.854;2023-06-22T17:36:15;1.00;;;0.90;;
8694;SDS011;65580;49.446;6.854;2023-06-22T17:40:19;1.75;;;1.10;;
8694;SDS011;65580;49.446;6.854;2023-06-22T17:44:25;1.40;;;1.13;;
8694;SDS011;65580;49.446;6.854;2023-06-22T17:48:30;4.20;;;1.27;;
8694;SDS011;65580;49.446;6.854;2023-06-22T17:52:34;2.15;;;0.88;;
8694;SDS011;65580;49.446;6.854;2023-06-22T17:56:37;1.92;;;1.10;;
8694;SDS011;65580;49.446;6.854;2023-06-22T18:00:40;1.45;;;1.00;;
8694;SDS011;65580;49.446;6.854;2023-06-22T18:04:45;1.10;;;0.90;;
8694;SDS011;65580;49.446;6.854;2023-06-22T18:08:48;4.43;;;1.00;;
8694;SDS011;65580;49.446;6.854;2023-06-22T18:12:52;1.15;;;1.05;;
8694;SDS011;65580;49.446;6.854;2023-06-22T18:16:57;1.00;;;0.73;;
8694;SDS011;65580;49.446;6.854;2023-06-22T18:21:02;1.10;;;0.77;;
8694;SDS011;65580;49.446;6.854;2023-06-22T18:25:07;1.80;;;1.08;;
8694;SDS011;65580;49.446;6.854;2023-06-22T18:29:12;0.77;;;0.77;;
8694;SDS011;65580;49.446;6.854;2023-06-22T18:33:15;0.65;;;0.65;;
8694;SDS011;65580;49.446;6.854;2023-06-22T18:37:19;1.02;;;0.93;;
8694;SDS011;65580;49.446;6.854;2023-06-22T18:41:23;0.90;;;0.82;;
8694;SDS011;65580;49.446;6.854;2023-06-22T18:45:27;2.38;;;1.20;;
8694;SDS011;65580;49.446;6.854;2023-06-22T18:49:32;2.50;;;1.02;;
8694;SDS011;65580;49.446;6.854;2023-06-22T18:53:36;1.17;;;1.00;;
8694;SDS011;65580;49.446;6.854;2023-06-22T18:57:40;1.20;;;1.00;;
8694;SDS011;65580;49.446;6.854;2023-06-22T19:05:45;1.63;;;1.00;;
8694;SDS011;65580;49.446;6.854;2023-06-22T19:10:20;1.52;;;1.13;;
8694;SDS011;65580;49.446;6.854;2023-06-22T19:14:24;1.55;;;1.15;;
8694;SDS011;65580;49.446;6.854;2023-06-22T19:18:28;1.30;;;1.20;;
8694;SDS011;65580;49.446;6.854;2023-06-22T19:22:45;2.25;;;1.15;;
8694;SDS011;65580;49.446;6.854;2023-06-22T19:26:59;1.40;;;1.30;;
8694;SDS011;65580;49.446;6.854;2023-06-22T19:31:03;1.77;;;1.40;;
8694;SDS011;65580;49.446;6.854;2023-06-22T19:35:06;1.48;;;1.38;;
8694;SDS011;65580;49.446;6.854;2023-06-22T19:39:10;2.80;;;1.52;;
8694;SDS011;65580;49.446;6.854;2023-06-22T19:43:15;1.40;;;1.30;;
8694;SDS011;65580;49.446;6.854;2023-06-22T19:47:19;1.60;;;1.48;;
8694;SDS011;65580;49.446;6.854;2023-06-22T19:51:24;1.50;;;1.40;;
8694;SDS011;65580;49.446;6.854;2023-06-22T19:55:35;1.73;;;1.30;;
8694;SDS011;65580;49.446;6.854;2023-06-22T19:59:40;2.83;;;1.60;;
8694;SDS011;65580;49.446;6.854;2023-06-22T20:03:45;1.42;;;1.33;;
8694;SDS011;65580;49.446;6.854;2023-06-22T20:07:49;2.58;;;1.70;;
8694;SDS011;65580;49.446;6.854;2023-06-22T20:11:55;2.55;;;1.70;;
8694;SDS011;65580;49.446;6.854;2023-06-22T20:16:07;1.70;;;1.58;;
8694;SDS011;65580;49.446;6.854;2023-06-22T20:20:17;1.40;;;1.30;;
8694;SDS011;65580;49.446;6.854;2023-06-22T20:24:21;2.90;;;1.40;;
8694;SDS011;65580;49.446;6.854;2023-06-22T20:28:24;4.95;;;1.38;;
8694;SDS011;65580;49.446;6.854;2023-06-22T20:32:29;3.47;;;1.25;;
8694;SDS011;65580;49.446;6.854;2023-06-22T20:36:34;1.08;;;1.00;;
8694;SDS011;65580;49.446;6.854;2023-06-22T20:44:40;1.20;;;1.10;;
8694;SDS011;65580;49.446;6.854;2023-06-22T20:48:48;1.20;;;0.93;;
8694;SDS011;65580;49.446;6.854;2023-06-22T20:52:52;1.17;;;1.08;;
8694;SDS011;65580;49.446;6.854;2023-06-22T21:00:57;1.67;;;1.20;;
8694;SDS011;65580;49.446;6.854;2023-06-22T21:05:04;1.55;;;1.42;;
8694;SDS011;65580;49.446;6.854;2023-06-22T21:09:07;4.13;;;2.05;;
8694;SDS011;65580;49.446;6.854;2023-06-22T21:13:11;5.55;;;2.22;;
8694;SDS011;65580;49.446;6.854;2023-06-22T21:17:15;4.68;;;2.60;;
8694;SDS011;65580;49.446;6.854;2023-06-22T21:21:20;3.08;;;2.45;;
8694;SDS011;65580;49.446;6.854;2023-06-22T21:25:23;5.50;;;2.80;;
8694;SDS011;65580;49.446;6.854;2023-06-22T21:29:25;4.15;;;2.90;;
8694;SDS011;65580;49.446;6.854;2023-06-22T21:33:28;4.28;;;2.58;;
8694;SDS011;65580;49.446;6.854;2023-06-22T21:37:32;3.55;;;2.63;;
8694;SDS011;65580;49.446;6.854;2023-06-22T21:41:35;5.85;;;2.75;;
8694;SDS011;65580;49.446;6.854;2023-06-22T21:45:38;3.50;;;2.67;;
8694;SDS011;65580;49.446;6.854;2023-06-22T21:49:41;4.60;;;2.97;;
8694;SDS011;65580;49.446;6.854;2023-06-22T21:53:46;5.38;;;3.20;;
8694;SDS011;65580;49.446;6.854;2023-06-22T21:57:52;7.85;;;3.80;;
8694;SDS011;65580;49.446;6.854;2023-06-22T22:05:58;5.93;;;3.63;;
8694;SDS011;65580;49.446;6.854;2023-06-22T22:10:03;6.35;;;4.00;;
8694;SDS011;65580;49.446;6.854;2023-06-22T22:14:08;5.60;;;3.42;;
8694;SDS011;65580;49.446;6.854;2023-06-22T22:22:14;6.18;;;3.67;;
8694;SDS011;65580;49.446;6.854;2023-06-22T22:30:22;5.68;;;3.33;;
8694;SDS011;65580;49.446;6.854;2023-06-22T22:34:25;5.80;;;3.22;;
8694;SDS011;65580;49.446;6.854;2023-06-22T22:42:32;5.18;;;3.22;;
8694;SDS011;65580;49.446;6.854;2023-06-22T22:46:35;5.43;;;3.30;;
8694;SDS011;65580;49.446;6.854;2023-06-22T22:50:38;5.85;;;3.50;;
8694;SDS011;65580;49.446;6.854;2023-06-22T22:54:41;4.78;;;3.20;;
8694;SDS011;65580;49.446;6.854;2023-06-22T22:58:46;4.95;;;2.95;;
8694;SDS011;65580;49.446;6.854;2023-06-22T23:02:49;6.05;;;3.40;;
8694;SDS011;65580;49.446;6.854;2023-06-22T23:06:52;5.47;;;3.60;;
8694;SDS011;65580;49.446;6.854;2023-06-22T23:10:55;6.97;;;4.85;;
8694;SDS011;65580;49.446;6.854;2023-06-22T23:15:00;9.38;;;5.95;;
8694;SDS011;65580;49.446;6.854;2023-06-22T23:19:04;11.90;;;7.25;;
8694;SDS011;65580;49.446;6.854;2023-06-22T23:23:07;11.25;;;7.80;;
8694;SDS011;65580;49.446;6.854;2023-06-22T23:27:11;14.70;;;8.10;;
8694;SDS011;65580;49.446;6.854;2023-06-22T23:31:17;16.77;;;9.05;;
8694;SDS011;65580;49.446;6.854;2023-06-22T23:35:20;13.30;;;9.45;;
8694;SDS011;65580;49.446;6.854;2023-06-22T23:39:24;15.00;;;9.10;;
8694;SDS011;65580;49.446;6.854;2023-06-22T23:43:27;16.17;;;10.45;;
8694;SDS011;65580;49.446;6.854;2023-06-22T23:47:32;14.63;;;9.38;;
8694;SDS011;65580;49.446;6.854;2023-06-22T23:51:37;15.75;;;9.52;;
8694;SDS011;65580;49.446;6.854;2023-06-22T23:59:44;17.85;;;10.70;;
